createdAt,value
2022-12-12T00:00:03.589Z,99334.19
2022-12-12T00:02:30.689Z,99366.38
2022-12-12T00:04:58.246Z,99367.25
2022-12-12T00:07:25.086Z,99353.34
2022-12-12T00:09:53.226Z,99359.41
2022-12-12T00:12:20.080Z,99355.09
2022-12-12T00:14:46.887Z,99355.06
2022-12-12T00:17:13.758Z,99357.69
2022-12-12T00:19:40.895Z,99359.38
2022-12-12T00:22:07.801Z,99358.53
2022-12-12T00:24:34.600Z,99355.91
2022-12-12T00:27:01.469Z,99368.03
2022-12-12T00:29:28.531Z,99373.28
2022-12-12T00:31:55.485Z,99383.66
2022-12-12T00:34:22.325Z,99392.38
2022-12-12T00:36:49.332Z,99393.25
2022-12-12T00:39:18.463Z,99395.00
2022-12-12T00:41:46.085Z,99401.09
2022-12-12T00:44:12.897Z,99393.31
2022-12-12T00:46:39.925Z,99402.81
2022-12-12T00:49:06.797Z,99382.81
2022-12-12T00:51:34.131Z,99401.97
2022-12-12T00:54:01.091Z,99404.50
2022-12-12T00:56:29.223Z,99414.97
2022-12-12T00:58:56.157Z,99410.62
2022-12-12T01:01:26.223Z,99405.38
2022-12-12T01:03:54.103Z,99403.59
2022-12-12T01:06:22.157Z,99407.94
2022-12-12T01:08:48.953Z,99405.34
2022-12-12T01:11:17.627Z,99409.62
2022-12-12T01:13:45.704Z,99413.91
2022-12-12T01:16:12.835Z,99405.25
2022-12-12T01:18:41.035Z,99399.06
2022-12-12T01:21:10.267Z,99392.06
2022-12-12T01:23:37.933Z,99393.81
2022-12-12T01:26:10.821Z,99394.59
2022-12-12T01:28:37.721Z,99400.63
2022-12-12T01:31:05.437Z,99397.06
2022-12-12T01:33:32.493Z,99401.38
2022-12-12T01:35:59.389Z,99390.13
2022-12-12T01:38:26.669Z,99390.06
2022-12-12T01:40:54.333Z,99392.66
2022-12-12T01:43:23.437Z,99396.09
2022-12-12T01:46:19.547Z,99395.22
2022-12-12T01:48:51.544Z,99391.75
2022-12-12T01:51:22.300Z,99394.34
2022-12-12T01:53:54.284Z,99393.44
2022-12-12T01:56:21.692Z,99395.09
2022-12-12T01:58:52.501Z,99395.06
2022-12-12T02:01:20.512Z,99388.12
2022-12-12T02:03:49.503Z,99389.00
2022-12-12T02:06:22.519Z,99379.47
2022-12-12T02:08:53.198Z,99381.16
2022-12-12T02:11:20.074Z,99381.97
2022-12-12T02:13:47.515Z,99385.41
2022-12-12T02:16:36.280Z,99387.97
2022-12-12T02:19:23.072Z,99397.50
2022-12-12T02:22:18.979Z,99405.19
2022-12-12T02:25:08.731Z,99395.59
2022-12-12T02:27:53.844Z,99402.47
2022-12-12T02:30:46.001Z,99407.72
2022-12-12T02:33:31.916Z,99399.06
2022-12-12T02:36:23.894Z,99400.78
2022-12-12T02:39:03.046Z,99402.53
2022-12-12T02:41:47.491Z,99392.19
2022-12-12T02:44:17.035Z,99394.78
2022-12-12T02:46:48.106Z,99396.56
2022-12-12T02:49:22.626Z,99393.16
2022-12-12T02:51:53.301Z,99393.22
2022-12-12T02:54:22.688Z,99399.28
2022-12-12T02:56:54.189Z,99396.69
2022-12-12T02:59:53.418Z,99402.75
2022-12-12T03:02:47.785Z,99397.56
2022-12-12T03:05:41.245Z,99398.47
2022-12-12T03:08:35.969Z,99408.06
2022-12-12T03:11:10.932Z,99403.72
2022-12-12T03:13:46.581Z,99411.47
2022-12-12T03:16:35.845Z,99410.59
2022-12-12T03:19:12.567Z,99409.72
2022-12-12T03:22:10.899Z,99414.06
2022-12-12T03:24:50.618Z,99411.47
2022-12-12T03:27:31.550Z,99413.25
2022-12-12T03:30:04.082Z,99408.88
2022-12-12T03:32:37.981Z,99409.69
2022-12-12T03:35:14.299Z,99410.50
2022-12-12T03:37:49.357Z,99413.09
2022-12-12T03:40:48.152Z,99417.41
2022-12-12T03:43:25.089Z,99419.09
2022-12-12T03:46:07.064Z,99428.63
2022-12-12T03:48:38.880Z,99432.09
2022-12-12T03:51:14.315Z,99435.56
2022-12-12T03:53:47.044Z,99440.81
2022-12-12T03:56:37.276Z,99441.62
2022-12-12T03:59:47.702Z,99434.69
2022-12-12T04:02:26.019Z,99450.28
2022-12-12T04:05:07.202Z,99446.88
2022-12-12T04:07:43.435Z,99454.66
2022-12-12T04:10:30.148Z,99424.06
2022-12-12T04:13:12.273Z,99452.94
2022-12-12T04:16:01.535Z,99464.28
2022-12-12T04:18:59.478Z,99468.66
2022-12-12T04:22:05.439Z,99479.12
2022-12-12T04:25:00.196Z,99474.72
2022-12-12T04:27:35.162Z,99486.09
2022-12-12T04:30:07.029Z,99494.75
2022-12-12T04:32:46.036Z,99496.44
2022-12-12T04:35:28.903Z,99499.03
2022-12-12T04:37:58.471Z,99498.97
2022-12-12T04:40:29.347Z,99505.84
2022-12-12T04:43:14.625Z,99502.31
2022-12-12T04:45:46.120Z,99507.50
2022-12-12T04:48:17.858Z,99515.28
2022-12-12T04:50:48.954Z,99518.78
2022-12-12T04:53:18.915Z,99510.81
2022-12-12T04:55:53.940Z,99516.88
2022-12-12T04:58:21.515Z,99526.38
2022-12-12T05:01:09.899Z,99526.31
2022-12-12T05:03:55.489Z,99526.25
2022-12-12T05:06:30.729Z,99521.81
2022-12-12T05:08:58.999Z,99522.66
2022-12-12T05:11:26.057Z,99520.87
2022-12-12T05:13:53.766Z,99524.25
2022-12-12T05:16:25.742Z,99529.44
2022-12-12T05:18:52.683Z,99528.44
2022-12-12T05:21:19.489Z,99528.47
2022-12-12T05:23:48.123Z,99522.38
2022-12-12T05:26:34.406Z,99526.69
2022-12-12T05:29:06.887Z,99524.06
2022-12-12T05:31:34.659Z,99524.12
2022-12-12T05:34:01.517Z,99519.72
2022-12-12T05:36:28.416Z,99531.00
2022-12-12T05:38:55.281Z,99519.59
2022-12-12T05:41:22.413Z,99530.84
2022-12-12T05:43:49.404Z,99527.38
2022-12-12T05:46:16.241Z,99523.00
2022-12-12T05:48:44.494Z,99528.16
2022-12-12T05:51:11.453Z,99522.94
2022-12-12T05:53:42.788Z,99539.44
2022-12-12T05:56:11.615Z,99541.97
2022-12-12T05:58:40.149Z,99530.66
2022-12-12T06:01:07.615Z,99548.09
2022-12-12T06:03:34.669Z,99528.03
2022-12-12T06:06:01.632Z,99526.38
2022-12-12T06:08:28.743Z,99537.72
2022-12-12T06:10:55.701Z,99536.75
2022-12-12T06:13:22.520Z,99554.03
2022-12-12T06:15:49.370Z,99537.41
2022-12-12T06:18:16.336Z,99552.84
2022-12-12T06:20:44.013Z,99554.62
2022-12-12T06:23:10.954Z,99555.50
2022-12-12T06:25:37.788Z,99558.13
2022-12-12T06:28:04.703Z,99544.25
2022-12-12T06:30:31.759Z,99564.31
2022-12-12T06:32:58.632Z,99547.78
2022-12-12T06:35:25.391Z,99537.25
2022-12-12T06:37:52.348Z,99552.09
2022-12-12T06:40:19.372Z,99543.47
2022-12-12T06:42:48.763Z,99546.09
2022-12-12T06:45:17.157Z,99547.81
2022-12-12T06:47:44.417Z,99547.00
2022-12-12T06:50:11.476Z,99544.41
2022-12-12T06:52:38.528Z,99554.97
2022-12-12T06:55:05.764Z,99559.34
2022-12-12T06:57:32.789Z,99563.66
2022-12-12T07:00:01.907Z,99568.00
2022-12-12T07:02:30.254Z,99544.56
2022-12-12T07:04:58.134Z,99566.34
2022-12-12T07:07:25.861Z,99568.94
2022-12-12T07:09:56.995Z,99563.81
2022-12-12T07:12:23.784Z,99569.94
2022-12-12T07:14:50.733Z,99572.59
2022-12-12T07:17:17.689Z,99576.94
2022-12-12T07:19:44.697Z,99568.22
2022-12-12T07:22:11.581Z,99581.56
2022-12-12T07:24:38.526Z,99580.81
2022-12-12T07:27:06.658Z,99601.84
2022-12-12T07:29:33.913Z,99600.22
2022-12-12T07:32:01.055Z,99598.50
2022-12-12T07:34:30.989Z,99613.41
2022-12-12T07:37:02.628Z,99618.47
2022-12-12T07:39:34.450Z,99608.94
2022-12-12T07:42:01.395Z,99617.75
2022-12-12T07:44:28.256Z,99618.81
2022-12-12T07:46:58.281Z,99621.44
2022-12-12T07:49:25.486Z,99620.75
2022-12-12T07:51:52.457Z,99632.81
2022-12-12T07:54:19.325Z,99636.50
2022-12-12T07:56:46.296Z,99638.69
2022-12-12T07:59:13.385Z,99650.28
2022-12-12T08:01:40.286Z,99636.38
2022-12-12T08:04:07.122Z,99648.81
2022-12-12T08:06:33.934Z,99651.53
2022-12-12T08:09:00.980Z,99641.16
2022-12-12T08:11:27.783Z,99635.91
2022-12-12T08:13:54.815Z,99658.25
2022-12-12T08:16:24.540Z,99658.34
2022-12-12T08:18:54.546Z,99649.16
2022-12-12T08:21:25.804Z,99661.47
2022-12-12T08:24:02.918Z,99662.31
2022-12-12T08:26:31.109Z,99665.06
2022-12-12T08:28:58.718Z,99663.34
2022-12-12T08:31:26.893Z,99671.91
2022-12-12T08:33:53.810Z,99672.06
2022-12-12T08:36:30.375Z,99673.06
2022-12-12T08:38:58.719Z,99668.38
2022-12-12T08:41:25.571Z,99649.19
2022-12-12T08:43:52.474Z,99670.38
2022-12-12T08:46:21.563Z,99670.59
2022-12-12T08:48:48.807Z,99623.28
2022-12-12T08:51:17.208Z,99664.38
2022-12-12T08:53:48.173Z,99665.34
2022-12-12T08:56:16.539Z,99675.91
2022-12-12T08:58:44.032Z,99666.25
2022-12-12T09:01:18.351Z,99677.59
2022-12-12T09:03:46.001Z,99670.69
2022-12-12T09:06:12.911Z,99666.37
2022-12-12T09:08:40.266Z,99685.59
2022-12-12T09:11:07.887Z,99675.28
2022-12-12T09:13:35.154Z,99617.56
2022-12-12T09:16:02.127Z,99667.53
2022-12-12T09:18:29.602Z,99676.31
2022-12-12T09:20:58.204Z,99670.28
2022-12-12T09:23:26.844Z,99671.81
2022-12-12T09:25:54.077Z,99670.81
2022-12-12T09:28:23.526Z,99685.12
2022-12-12T09:30:50.792Z,99686.09
2022-12-12T09:33:18.760Z,99697.19
2022-12-12T09:35:47.772Z,99678.63
2022-12-12T09:38:15.286Z,99683.31
2022-12-12T09:40:56.320Z,99686.72
2022-12-12T09:43:29.791Z,99684.09
2022-12-12T09:45:58.052Z,99690.06
2022-12-12T09:48:41.167Z,99686.41
2022-12-12T09:51:09.754Z,99680.63
2022-12-12T09:53:38.412Z,99692.03
2022-12-12T09:56:13.214Z,99689.13
2022-12-12T09:58:56.636Z,99680.00
2022-12-12T10:01:56.130Z,99686.66
2022-12-12T10:04:31.985Z,99681.66
2022-12-12T10:07:06.953Z,99670.78
2022-12-12T10:10:05.828Z,99676.00
2022-12-12T10:12:34.206Z,99665.00
2022-12-12T10:15:04.808Z,99674.69
2022-12-12T10:17:46.806Z,99668.47
2022-12-12T10:20:26.002Z,99675.63
2022-12-12T10:23:11.656Z,99657.25
2022-12-12T10:25:46.479Z,99672.09
2022-12-12T10:28:19.033Z,99661.47
2022-12-12T10:30:54.435Z,99668.00
2022-12-12T10:33:24.063Z,99677.31
2022-12-12T10:36:40.416Z,99681.97
2022-12-12T10:39:20.802Z,99684.72
2022-12-12T10:42:02.864Z,99680.28
2022-12-12T10:44:41.747Z,99675.28
2022-12-12T10:47:12.977Z,99685.69
2022-12-12T10:49:40.486Z,99692.75
2022-12-12T10:52:17.381Z,99691.50
2022-12-12T10:54:55.401Z,99690.50
2022-12-12T10:57:25.734Z,99692.81
2022-12-12T10:59:56.518Z,99682.66
2022-12-12T11:02:30.491Z,99687.38
2022-12-12T11:05:21.461Z,99686.50
2022-12-12T11:08:04.980Z,99706.50
2022-12-12T11:10:38.111Z,99693.88
2022-12-12T11:13:11.492Z,99697.34
2022-12-12T11:15:44.661Z,99701.53
2022-12-12T11:18:17.278Z,99710.22
2022-12-12T11:20:52.402Z,99707.53
2022-12-12T11:23:24.435Z,99709.34
2022-12-12T11:26:17.167Z,99697.81
2022-12-12T11:28:51.205Z,99707.66
2022-12-12T11:31:24.108Z,99703.22
2022-12-12T11:33:55.847Z,99688.00
2022-12-12T11:36:28.476Z,99706.00
2022-12-12T11:38:58.147Z,99708.06
2022-12-12T11:41:25.122Z,99696.97
2022-12-12T11:43:51.997Z,99705.50
2022-12-12T11:46:23.798Z,99704.63
2022-12-12T11:48:53.474Z,99705.84
2022-12-12T11:51:39.367Z,99712.56
2022-12-12T11:54:31.554Z,99715.56
2022-12-12T11:57:02.182Z,99733.91
2022-12-12T11:59:34.738Z,99730.25
2022-12-12T12:02:07.586Z,99731.56
2022-12-12T12:04:53.135Z,99725.00
2022-12-12T12:07:52.718Z,99736.44
2022-12-12T12:11:10.766Z,99743.53
2022-12-12T12:13:56.678Z,99751.94
2022-12-12T12:16:50.807Z,99761.19
2022-12-12T12:19:23.517Z,99754.94
2022-12-12T12:21:59.375Z,99759.66
2022-12-12T12:24:47.830Z,99762.19
2022-12-12T12:27:28.504Z,99753.75
2022-12-12T12:30:18.478Z,99747.44
2022-12-12T12:32:48.051Z,99742.41
2022-12-12T12:35:25.623Z,99746.38
2022-12-12T12:38:04.202Z,99743.47
2022-12-12T12:40:49.126Z,99753.38
2022-12-12T12:43:39.369Z,99749.91
2022-12-12T12:46:20.434Z,99741.81
2022-12-12T12:48:52.777Z,99740.41
2022-12-12T12:51:19.790Z,99748.56
2022-12-12T12:53:53.296Z,99743.47
2022-12-12T12:56:26.520Z,99745.69
2022-12-12T12:58:57.578Z,99757.94
2022-12-12T13:01:36.229Z,99756.50
2022-12-12T13:04:12.521Z,99763.88
2022-12-12T13:06:42.482Z,99768.06
2022-12-12T13:09:31.097Z,99766.47
2022-12-12T13:12:35.776Z,99765.53
2022-12-12T13:15:22.444Z,99769.88
2022-12-12T13:18:05.653Z,99768.38
2022-12-12T13:20:40.713Z,99770.13
2022-12-12T13:23:35.609Z,99767.34
2022-12-12T13:26:12.792Z,99766.47
2022-12-12T13:28:53.773Z,99768.41
2022-12-12T13:31:48.524Z,99762.25
2022-12-12T13:34:18.495Z,99759.97
2022-12-12T13:36:49.243Z,99768.44
2022-12-12T13:39:31.750Z,99764.91
2022-12-12T13:42:04.751Z,99770.94
2022-12-12T13:44:39.807Z,99778.88
2022-12-12T13:47:32.830Z,99775.22
2022-12-12T13:50:20.340Z,99775.31
2022-12-12T13:53:07.095Z,99778.69
2022-12-12T13:55:35.226Z,99792.44
2022-12-12T13:58:09.268Z,99786.28
2022-12-12T14:00:37.824Z,99787.94
2022-12-12T14:03:10.504Z,99799.38
2022-12-12T14:05:43.215Z,99800.09
2022-12-12T14:08:10.053Z,99793.97
2022-12-12T14:10:41.532Z,99809.66
2022-12-12T14:13:23.858Z,99812.41
2022-12-12T14:16:06.967Z,99811.56
2022-12-12T14:18:58.090Z,99807.16
2022-12-12T14:21:47.104Z,99805.88
2022-12-12T14:24:32.375Z,99818.16
2022-12-12T14:27:00.166Z,99817.13
2022-12-12T14:29:33.182Z,99805.09
2022-12-12T14:32:12.360Z,99805.59
2022-12-12T14:35:17.067Z,99809.94
2022-12-12T14:38:21.067Z,99815.94
2022-12-12T14:41:02.110Z,99810.81
2022-12-12T14:43:33.382Z,99815.06
2022-12-12T14:46:01.640Z,99821.72
2022-12-12T14:48:29.639Z,99815.66
2022-12-12T14:51:01.580Z,99832.87
2022-12-12T14:53:36.926Z,99830.22
2022-12-12T14:56:08.013Z,99830.22
2022-12-12T14:58:38.903Z,99826.81
2022-12-12T15:01:07.592Z,99831.94
2022-12-12T15:03:51.049Z,99844.94
2022-12-12T15:06:23.955Z,99838.94
2022-12-12T15:08:52.403Z,99844.81
2022-12-12T15:11:27.658Z,99846.47
2022-12-12T15:13:55.883Z,99842.13
2022-12-12T15:16:29.278Z,99843.13
2022-12-12T15:18:58.036Z,99843.13
2022-12-12T15:21:25.027Z,99840.50
2022-12-12T15:23:52.111Z,99843.03
2022-12-12T15:26:22.531Z,99838.66
2022-12-12T15:28:49.955Z,99839.50
2022-12-12T15:31:19.206Z,99846.53
2022-12-12T15:33:48.717Z,99839.59
2022-12-12T15:36:31.939Z,99857.88
2022-12-12T15:39:08.961Z,99853.38
2022-12-12T15:41:36.446Z,99863.91
2022-12-12T15:44:04.070Z,99871.72
2022-12-12T15:46:32.033Z,99866.50
2022-12-12T15:48:58.941Z,99873.47
2022-12-12T15:51:31.607Z,99869.22
2022-12-12T15:53:59.692Z,99861.25
2022-12-12T15:56:29.178Z,99870.00
2022-12-12T15:59:05.697Z,99867.47
2022-12-12T16:01:33.130Z,99877.81
2022-12-12T16:04:03.503Z,99869.13
2022-12-12T16:06:42.036Z,99873.56
2022-12-12T16:09:12.124Z,99874.47
2022-12-12T16:11:41.940Z,99878.91
2022-12-12T16:14:40.356Z,99880.63
2022-12-12T16:17:20.802Z,99881.53
2022-12-12T16:19:48.097Z,99884.34
2022-12-12T16:22:32.236Z,99886.94
2022-12-12T16:25:17.612Z,99887.03
2022-12-12T16:27:45.245Z,99870.53
2022-12-12T16:30:15.254Z,99886.25
2022-12-12T16:32:42.683Z,99886.19
2022-12-12T16:35:21.193Z,99886.19
2022-12-12T16:37:48.521Z,99894.00
2022-12-12T16:40:18.514Z,99890.69
2022-12-12T16:42:53.413Z,99899.44
2022-12-12T16:45:20.398Z,99900.19
2022-12-12T16:47:47.303Z,99888.91
2022-12-12T16:50:15.170Z,99885.44
2022-12-12T16:52:42.125Z,99892.44
2022-12-12T16:55:16.985Z,99894.81
2022-12-12T16:57:43.869Z,99907.94
2022-12-12T17:00:13.350Z,99894.97
2022-12-12T17:02:40.565Z,99892.25
2022-12-12T17:05:12.932Z,99895.69
2022-12-12T17:07:39.929Z,99907.94
2022-12-12T17:10:11.164Z,99906.19
2022-12-12T17:12:41.559Z,99903.56
2022-12-12T17:15:16.914Z,99905.25
2022-12-12T17:17:44.071Z,99900.91
2022-12-12T17:20:13.313Z,99898.28
2022-12-12T17:22:40.891Z,99902.56
2022-12-12T17:25:08.580Z,99903.34
2022-12-12T17:27:36.628Z,99905.84
2022-12-12T17:30:07.465Z,99899.69
2022-12-12T17:32:35.744Z,99888.91
2022-12-12T17:35:03.795Z,99905.47
2022-12-12T17:37:32.229Z,99903.72
2022-12-12T17:40:02.088Z,99904.56
2022-12-12T17:42:33.155Z,99903.66
2022-12-12T17:45:00.074Z,99908.94
2022-12-12T17:47:27.519Z,99890.53
2022-12-12T17:49:55.459Z,99910.72
2022-12-12T17:52:24.278Z,99912.38
2022-12-12T17:55:54.241Z,99913.25
2022-12-12T17:57:38.257Z,99915.94
2022-12-12T18:00:07.375Z,99920.97
2022-12-12T18:02:34.780Z,99926.84
2022-12-12T18:05:03.737Z,99920.72
2022-12-12T18:07:30.734Z,99922.38
2022-12-12T18:10:00.481Z,99916.94
2022-12-12T18:12:29.042Z,99924.78
2022-12-12T18:14:56.290Z,99928.28
2022-12-12T18:17:23.486Z,99932.53
2022-12-12T18:19:51.213Z,99924.53
2022-12-12T18:22:18.461Z,99930.75
2022-12-12T18:24:45.720Z,99935.16
2022-12-12T18:27:13.382Z,99949.03
2022-12-12T18:29:41.158Z,99948.16
2022-12-12T18:32:11.128Z,99945.56
2022-12-12T18:34:39.446Z,99947.31
2022-12-12T18:37:06.591Z,99943.84
2022-12-12T18:39:34.596Z,99948.09
2022-12-12T18:42:01.886Z,99952.31
2022-12-12T18:44:29.054Z,99941.97
2022-12-12T18:46:56.217Z,99957.78
2022-12-12T18:49:23.368Z,99953.31
2022-12-12T18:51:50.816Z,99954.94
2022-12-12T18:54:20.613Z,99953.31
2022-12-12T18:56:48.849Z,99961.94
2022-12-12T18:59:18.995Z,99955.03
2022-12-12T19:01:49.226Z,99961.09
2022-12-12T19:04:22.704Z,99961.97
2022-12-12T19:06:51.819Z,99968.03
2022-12-12T19:09:20.872Z,99969.91
2022-12-12T19:11:49.035Z,99963.94
2022-12-12T19:14:17.788Z,99970.97
2022-12-12T19:16:49.851Z,99969.22
2022-12-12T19:19:18.193Z,99960.22
2022-12-12T19:21:47.969Z,99962.06
2022-12-12T19:24:15.600Z,99980.34
2022-12-12T19:26:45.252Z,99986.41
2022-12-12T19:29:19.027Z,99983.91
2022-12-12T19:31:46.837Z,99984.84
2022-12-12T19:34:18.067Z,99984.91
2022-12-12T19:36:45.726Z,99993.56
2022-12-12T19:39:13.641Z,99998.78
2022-12-12T19:41:42.551Z,100003.13
2022-12-12T19:44:13.762Z,100004.00
2022-12-12T19:46:46.020Z,100004.00
2022-12-12T19:49:15.696Z,100011.00
2022-12-12T19:51:45.371Z,100007.56
2022-12-12T19:54:16.552Z,100015.50
2022-12-12T19:56:45.640Z,100016.37
2022-12-12T19:59:15.488Z,100021.59
2022-12-12T20:01:43.716Z,100024.13
2022-12-12T20:04:17.987Z,100024.19
2022-12-12T20:06:47.554Z,100027.56
2022-12-12T20:09:23.724Z,100030.97
2022-12-12T20:11:51.662Z,100031.84
2022-12-12T20:14:28.166Z,100026.63
2022-12-12T20:16:56.178Z,100029.22
2022-12-12T20:19:25.745Z,100024.81
2022-12-12T20:22:02.428Z,100022.97
2022-12-12T20:24:32.597Z,100015.88
2022-12-12T20:27:03.939Z,100021.00
2022-12-12T20:29:32.030Z,100032.12
2022-12-12T20:32:00.173Z,100025.16
2022-12-12T20:34:28.833Z,100033.69
2022-12-12T20:36:56.677Z,100033.78
2022-12-12T20:39:26.394Z,100038.84
2022-12-12T20:41:55.331Z,100043.94
2022-12-12T20:44:24.293Z,100048.22
2022-12-12T20:46:52.146Z,100055.13
2022-12-12T20:49:29.020Z,100055.06
2022-12-12T20:51:57.648Z,100037.75
2022-12-12T20:54:28.703Z,100052.38
2022-12-12T20:56:59.064Z,100053.09
2022-12-12T20:59:27.692Z,100057.31
2022-12-12T21:01:55.286Z,100055.50
2022-12-12T21:04:24.519Z,100050.16
2022-12-12T21:06:52.308Z,100065.00
2022-12-12T21:09:25.058Z,100067.63
2022-12-12T21:12:01.169Z,100061.63
2022-12-12T21:14:30.847Z,100065.19
2022-12-12T21:16:58.115Z,100067.72
2022-12-12T21:19:25.308Z,100076.34
2022-12-12T21:21:53.429Z,100069.44
2022-12-12T21:24:21.169Z,100081.59
2022-12-12T21:26:48.162Z,100067.59
2022-12-12T21:29:15.672Z,100069.22
2022-12-12T21:31:49.930Z,100074.22
2022-12-12T21:34:20.344Z,100074.97
2022-12-12T21:36:50.786Z,100082.72
2022-12-12T21:39:17.674Z,100081.84
2022-12-12T21:41:44.729Z,100079.03
2022-12-12T21:44:11.595Z,100075.47
2022-12-12T21:46:41.960Z,100075.69
2022-12-12T21:49:28.341Z,100077.44
2022-12-12T21:51:57.946Z,100078.66
2022-12-12T21:54:25.573Z,100083.75
2022-12-12T21:56:53.576Z,100081.16
2022-12-12T21:59:20.494Z,100078.66
2022-12-12T22:01:47.885Z,100085.50
2022-12-12T22:04:14.816Z,100067.91
2022-12-12T22:06:44.752Z,100072.22
2022-12-12T22:09:12.752Z,100067.03
2022-12-12T22:11:50.640Z,100079.22
2022-12-12T22:14:21.564Z,100073.91
2022-12-12T22:16:48.997Z,100077.31
2022-12-12T22:19:16.904Z,100067.84
2022-12-12T22:21:46.399Z,100075.75
2022-12-12T22:24:13.669Z,100086.16
2022-12-12T22:26:42.879Z,100083.28
2022-12-12T22:29:16.258Z,100080.97
2022-12-12T22:31:44.823Z,100087.81
2022-12-12T22:34:15.590Z,100087.00
2022-12-12T22:36:43.733Z,100085.19
2022-12-12T22:39:15.841Z,100086.84
2022-12-12T22:41:42.950Z,100081.59
2022-12-12T22:44:14.767Z,100083.94
2022-12-12T22:46:44.237Z,100086.59
2022-12-12T22:49:13.847Z,100084.09
2022-12-12T22:51:41.732Z,100093.53
2022-12-12T22:54:08.885Z,100093.53
2022-12-12T22:56:37.560Z,100097.97
2022-12-12T22:59:06.074Z,100103.94
2022-12-12T23:01:33.389Z,100099.53
2022-12-12T23:04:00.697Z,100104.72
2022-12-12T23:06:30.874Z,100097.56
2022-12-12T23:08:59.024Z,100103.91
2022-12-12T23:11:28.840Z,100111.63
2022-12-12T23:14:00.568Z,100116.03
2022-12-12T23:16:28.989Z,100108.16
2022-12-12T23:18:55.868Z,100107.94
2022-12-12T23:21:23.958Z,100115.97
2022-12-12T23:23:51.743Z,100111.50
2022-12-12T23:26:21.902Z,100110.34
2022-12-12T23:28:49.166Z,100106.13
2022-12-12T23:31:26.309Z,100109.56
2022-12-12T23:33:55.857Z,100119.00
2022-12-12T23:36:23.800Z,100103.47
2022-12-12T23:38:55.515Z,100115.63
2022-12-12T23:41:22.469Z,100110.41
2022-12-12T23:43:49.822Z,100120.72
2022-12-12T23:46:29.006Z,100115.53
2022-12-12T23:49:06.322Z,100122.56
2022-12-12T23:51:39.727Z,100120.91
2022-12-12T23:54:09.583Z,100110.09
2022-12-12T23:56:36.685Z,100120.94
2022-12-12T23:59:04.055Z,100123.44
